createdAt,value
2018-06-03T00:00:28.912Z,12.89
2018-06-03T00:01:28.853Z,12.76
2018-06-03T00:02:28.729Z,12.87
2018-06-03T00:03:28.640Z,12.91
2018-06-03T00:04:28.553Z,12.91
2018-06-03T00:05:28.458Z,12.88
2018-06-03T00:06:28.395Z,12.91
2018-06-03T00:07:28.272Z,12.85
2018-06-03T00:08:28.184Z,12.87
2018-06-03T00:09:28.914Z,12.84
2018-06-03T00:10:28.001Z,12.92
2018-06-03T00:11:27.948Z,12.96
2018-06-03T00:12:27.821Z,12.91
2018-06-03T00:13:27.732Z,12.96
2018-06-03T00:14:27.641Z,13.01
2018-06-03T00:15:27.551Z,13.07
2018-06-03T00:16:27.490Z,13.16
2018-06-03T00:17:27.368Z,13.22
2018-06-03T00:18:27.277Z,13.24
2018-06-03T00:19:27.186Z,13.13
2018-06-03T00:20:27.095Z,13.13
2018-06-03T00:21:27.036Z,13.19
2018-06-03T00:22:26.912Z,13.04
2018-06-03T00:23:26.824Z,13.16
2018-06-03T00:24:26.729Z,13.09
2018-06-03T00:25:26.643Z,13.09
2018-06-03T00:26:26.551Z,13.21
2018-06-03T00:27:26.491Z,13.14
2018-06-03T00:28:26.367Z,13.17
2018-06-03T00:29:26.276Z,13.22
2018-06-03T00:30:26.187Z,13.13
2018-06-03T00:31:26.100Z,13.09
2018-06-03T00:32:26.038Z,13.06
2018-06-03T00:33:25.916Z,13.10
2018-06-03T00:34:25.825Z,13.12
2018-06-03T00:35:25.734Z,13.13
2018-06-03T00:36:25.645Z,13.21
2018-06-03T00:37:25.584Z,13.25
2018-06-03T00:38:25.463Z,13.29
2018-06-03T00:39:25.371Z,13.29
2018-06-03T00:40:25.314Z,13.25
2018-06-03T00:41:25.190Z,13.03
2018-06-03T00:42:25.128Z,13.12
2018-06-03T00:43:25.006Z,13.03
2018-06-03T00:44:24.921Z,13.09
2018-06-03T00:45:24.832Z,13.09
2018-06-03T00:46:24.829Z,13.12
2018-06-03T00:47:24.679Z,13.12
2018-06-03T00:48:24.558Z,13.10
2018-06-03T00:49:24.467Z,13.04
2018-06-03T00:50:24.379Z,13.22
2018-06-03T00:51:24.285Z,13.29
2018-06-03T00:52:24.240Z,13.32
2018-06-03T00:53:24.198Z,13.13
2018-06-03T00:54:24.011Z,12.91
2018-06-03T00:55:23.922Z,12.94
2018-06-03T00:56:23.830Z,12.89
2018-06-03T00:57:23.772Z,12.89
2018-06-03T00:58:23.650Z,12.79
2018-06-03T00:59:23.559Z,12.85
2018-06-03T01:00:23.562Z,12.84
2018-06-03T01:01:23.380Z,12.81
2018-06-03T01:02:23.314Z,12.63
2018-06-03T01:03:23.197Z,12.67
2018-06-03T01:04:23.110Z,12.66
2018-06-03T01:05:23.016Z,12.63
2018-06-03T01:06:22.926Z,12.67
2018-06-03T01:07:22.959Z,12.66
2018-06-03T01:08:22.756Z,12.63
2018-06-03T01:09:22.659Z,12.63
2018-06-03T01:10:22.563Z,12.79
2018-06-03T01:11:22.471Z,12.92
2018-06-03T01:12:22.411Z,12.91
2018-06-03T01:13:22.293Z,12.79
2018-06-03T01:14:22.293Z,12.69
2018-06-03T01:15:22.109Z,12.70
2018-06-03T01:16:22.018Z,12.69
2018-06-03T01:17:21.926Z,12.77
2018-06-03T01:18:21.869Z,12.81
2018-06-03T01:19:21.746Z,12.77
2018-06-03T01:20:21.657Z,12.81
2018-06-03T01:21:21.655Z,12.87
2018-06-03T01:22:21.476Z,12.89
2018-06-03T01:23:21.428Z,13.07
2018-06-03T01:24:21.291Z,13.17
2018-06-03T01:25:21.202Z,13.24
2018-06-03T01:26:21.108Z,13.14
2018-06-03T01:27:21.017Z,13.19
2018-06-03T01:28:21.052Z,13.12
2018-06-03T01:29:20.837Z,13.12
2018-06-03T01:30:20.745Z,13.03
2018-06-03T01:31:20.654Z,12.85
2018-06-03T01:32:20.563Z,12.59
2018-06-03T01:33:20.502Z,12.46
2018-06-03T01:34:20.384Z,12.25
2018-06-03T01:35:20.383Z,12.25
2018-06-03T01:36:20.204Z,12.13
2018-06-03T01:37:20.112Z,12.12
2018-06-03T01:38:20.050Z,12.19
2018-06-03T01:39:19.927Z,12.11
2018-06-03T01:40:19.838Z,12.33
2018-06-03T01:41:19.753Z,12.44
2018-06-03T01:42:19.745Z,12.61
2018-06-03T01:43:19.593Z,12.67
2018-06-03T01:44:19.474Z,12.81
2018-06-03T01:45:19.382Z,12.80
2018-06-03T01:46:19.292Z,12.81
2018-06-03T01:47:19.201Z,12.58
2018-06-03T01:48:19.142Z,12.55
2018-06-03T01:49:20.933Z,12.59
2018-06-03T01:50:18.927Z,12.52
2018-06-03T01:51:18.836Z,12.49
2018-06-03T01:52:18.748Z,12.54
2018-06-03T01:53:18.683Z,12.49
2018-06-03T01:54:18.560Z,12.43
2018-06-03T01:55:18.560Z,12.46
2018-06-03T01:56:18.379Z,12.43
2018-06-03T01:57:18.289Z,12.37
2018-06-03T01:58:18.230Z,12.38
2018-06-03T01:59:18.105Z,12.31
2018-06-03T02:00:18.016Z,12.41
2018-06-03T02:01:17.924Z,12.49
2018-06-03T02:02:17.834Z,12.52
2018-06-03T02:03:17.743Z,12.51
2018-06-03T02:04:17.699Z,12.62
2018-06-03T02:05:17.563Z,12.71
2018-06-03T02:06:17.470Z,12.91
2018-06-03T02:07:17.378Z,12.98
2018-06-03T02:08:17.289Z,13.16
2018-06-03T02:09:17.228Z,13.22
2018-06-03T02:10:17.106Z,13.13
2018-06-03T02:11:17.012Z,13.01
2018-06-03T02:12:16.928Z,12.99
2018-06-03T02:13:16.832Z,12.80
2018-06-03T02:14:16.792Z,12.48
2018-06-03T02:15:16.649Z,12.29
2018-06-03T02:16:16.565Z,12.16
2018-06-03T02:17:16.468Z,12.00
2018-06-03T02:18:16.376Z,12.12
2018-06-03T02:19:16.313Z,12.33
2018-06-03T02:20:17.940Z,12.38
2018-06-03T02:21:16.103Z,12.41
2018-06-03T02:22:16.011Z,12.59
2018-06-03T02:23:15.919Z,12.61
2018-06-03T02:24:15.859Z,12.88
2018-06-03T02:25:15.737Z,12.91
2018-06-03T02:26:16.442Z,12.95
2018-06-03T02:27:15.554Z,12.76
2018-06-03T02:28:15.462Z,12.56
2018-06-03T02:29:15.402Z,12.38
2018-06-03T02:30:15.282Z,12.11
2018-06-03T02:31:15.189Z,12.22
2018-06-03T02:32:15.101Z,12.29
2018-06-03T02:33:15.013Z,12.33
2018-06-03T02:34:14.954Z,12.40
2018-06-03T02:35:14.823Z,12.37
2018-06-03T02:36:14.733Z,12.38
2018-06-03T02:37:14.645Z,12.38
2018-06-03T02:38:14.548Z,12.26
2018-06-03T02:39:14.488Z,12.25
2018-06-03T02:40:14.369Z,12.25
2018-06-03T02:41:14.291Z,12.25
2018-06-03T02:42:14.187Z,12.34
2018-06-03T02:43:14.954Z,12.38
2018-06-03T02:44:14.037Z,12.51
2018-06-03T02:45:13.914Z,12.56
2018-06-03T02:46:13.819Z,12.55
2018-06-03T02:47:13.731Z,12.22
2018-06-03T02:48:13.643Z,12.01
2018-06-03T02:49:13.580Z,11.98
2018-06-03T02:50:13.454Z,11.82
2018-06-03T02:51:13.370Z,11.85
2018-06-03T02:52:13.291Z,11.85
2018-06-03T02:53:13.183Z,11.79
2018-06-03T02:54:13.120Z,11.98
2018-06-03T02:55:12.996Z,11.97
2018-06-03T02:56:12.919Z,11.97
2018-06-03T02:57:12.815Z,12.00
2018-06-03T02:58:12.724Z,12.04
2018-06-03T02:59:12.677Z,12.07
2018-06-03T03:00:12.573Z,12.34
2018-06-03T03:01:12.446Z,12.40
2018-06-03T03:02:12.357Z,12.38
2018-06-03T03:03:12.265Z,12.23
2018-06-03T03:04:12.178Z,12.12
2018-06-03T03:05:12.113Z,12.16
2018-06-03T03:06:11.987Z,12.25
2018-06-03T03:07:11.904Z,12.41
2018-06-03T03:08:11.808Z,12.63
2018-06-03T03:09:11.717Z,12.67
2018-06-03T03:10:11.654Z,12.69
2018-06-03T03:11:11.531Z,12.59
2018-06-03T03:12:11.534Z,12.52
2018-06-03T03:13:11.352Z,12.44
2018-06-03T03:14:11.996Z,12.38
2018-06-03T03:15:11.205Z,12.56
2018-06-03T03:16:11.077Z,12.56
2018-06-03T03:17:10.985Z,12.67
2018-06-03T03:18:10.893Z,12.66
2018-06-03T03:19:10.800Z,12.81
2018-06-03T03:20:10.741Z,12.85
2018-06-03T03:21:10.620Z,12.92
2018-06-03T03:22:10.530Z,12.88
2018-06-03T03:23:10.439Z,12.91
2018-06-03T03:24:10.345Z,12.91
2018-06-03T03:25:10.281Z,12.88
2018-06-03T03:26:10.161Z,12.87
2018-06-03T03:27:10.072Z,12.91
2018-06-03T03:28:09.977Z,12.87
2018-06-03T03:29:09.888Z,12.81
2018-06-03T03:30:09.829Z,12.87
2018-06-03T03:31:09.704Z,12.84
2018-06-03T03:32:10.458Z,12.87
2018-06-03T03:33:09.528Z,12.81
2018-06-03T03:34:09.958Z,12.88
2018-06-03T03:35:09.369Z,12.89
2018-06-03T03:36:09.254Z,12.99
2018-06-03T03:37:09.161Z,12.98
2018-06-03T03:38:09.064Z,13.03
2018-06-03T03:39:08.979Z,13.09
2018-06-03T03:40:08.919Z,13.13
2018-06-03T03:41:08.795Z,13.21
2018-06-03T03:42:08.701Z,13.12
2018-06-03T03:43:08.612Z,13.04
2018-06-03T03:44:08.523Z,13.01
2018-06-03T03:45:08.461Z,12.95
2018-06-03T03:46:08.340Z,12.81
2018-06-03T03:47:08.247Z,12.69
2018-06-03T03:48:08.287Z,12.63
2018-06-03T03:49:08.067Z,12.61
2018-06-03T03:50:08.007Z,12.63
2018-06-03T03:51:07.885Z,12.69
2018-06-03T03:52:07.793Z,12.76
2018-06-03T03:53:07.705Z,12.92
2018-06-03T03:54:07.609Z,13.01
2018-06-03T03:55:07.620Z,13.12
2018-06-03T03:56:07.461Z,13.14
2018-06-03T03:57:07.340Z,13.06
2018-06-03T03:58:07.247Z,13.06
2018-06-03T03:59:07.156Z,13.14
2018-06-03T04:00:07.067Z,13.09
2018-06-03T04:01:07.005Z,13.04
2018-06-03T04:02:06.974Z,13.14
2018-06-03T04:03:06.804Z,13.01
2018-06-03T04:04:06.702Z,13.03
2018-06-03T04:05:06.613Z,13.01
2018-06-03T04:06:06.552Z,12.99
2018-06-03T04:07:06.450Z,13.17
2018-06-03T04:08:06.335Z,13.16
2018-06-03T04:09:06.350Z,13.29
2018-06-03T04:10:06.155Z,13.38
2018-06-03T04:11:06.093Z,13.48
2018-06-03T04:12:05.975Z,13.48
2018-06-03T04:13:05.882Z,13.65
2018-06-03T04:14:05.792Z,13.62
2018-06-03T04:15:05.700Z,13.61
2018-06-03T04:16:05.731Z,13.57
2018-06-03T04:17:05.523Z,13.76
2018-06-03T04:18:05.432Z,13.76
2018-06-03T04:19:05.337Z,13.83
2018-06-03T04:20:05.250Z,13.94
2018-06-03T04:21:05.191Z,13.90
2018-06-03T04:22:05.068Z,13.96
2018-06-03T04:23:05.070Z,13.91
2018-06-03T04:24:04.884Z,13.87
2018-06-03T04:25:04.795Z,13.88
2018-06-03T04:26:04.738Z,13.84
2018-06-03T04:27:04.617Z,13.98
2018-06-03T04:28:04.526Z,13.93
2018-06-03T04:29:04.437Z,13.96
2018-06-03T04:30:04.438Z,13.98
2018-06-03T04:31:04.285Z,14.11
2018-06-03T04:32:04.166Z,14.12
2018-06-03T04:33:04.071Z,14.11
2018-06-03T04:34:03.980Z,14.19
2018-06-03T04:35:03.891Z,14.17
2018-06-03T04:36:03.833Z,14.20
2018-06-03T04:37:03.802Z,14.29
2018-06-03T04:38:04.473Z,14.35
2018-06-03T04:39:03.538Z,14.44
2018-06-03T04:40:03.446Z,14.44
2018-06-03T04:41:03.381Z,14.45
2018-06-03T04:42:03.261Z,14.48
2018-06-03T04:43:03.172Z,14.59
2018-06-03T04:44:04.032Z,14.61
2018-06-03T04:45:02.993Z,14.79
2018-06-03T04:46:02.907Z,14.79
2018-06-03T04:47:02.847Z,14.80
2018-06-03T04:48:02.723Z,14.87
2018-06-03T04:49:02.637Z,15.05
2018-06-03T04:50:02.545Z,15.07
2018-06-03T04:51:02.545Z,15.15
2018-06-03T04:52:02.396Z,15.12
2018-06-03T04:53:02.275Z,15.19
2018-06-03T04:54:02.187Z,15.20
2018-06-03T04:55:02.136Z,15.16
2018-06-03T04:56:02.010Z,15.33
2018-06-03T04:57:02.043Z,15.38
2018-06-03T04:58:01.831Z,15.33
2018-06-03T04:59:01.742Z,15.37
2018-06-03T05:00:01.653Z,15.40
2018-06-03T05:01:01.564Z,15.43
2018-06-03T05:02:01.504Z,15.46
2018-06-03T05:03:01.388Z,15.49
2018-06-03T05:04:01.299Z,15.53
2018-06-03T05:05:01.209Z,15.55
2018-06-03T05:06:01.121Z,15.52
2018-06-03T05:07:01.061Z,15.51
2018-06-03T05:08:00.943Z,15.55
2018-06-03T05:09:00.860Z,15.64
2018-06-03T05:10:00.767Z,15.62
2018-06-03T05:11:00.677Z,15.60
2018-06-03T05:12:00.636Z,15.67
2018-06-03T05:13:00.498Z,15.73
2018-06-03T05:14:00.412Z,15.64
2018-06-03T05:15:00.323Z,15.80
2018-06-03T05:16:00.236Z,15.80
2018-06-03T05:17:00.178Z,15.77
2018-06-03T05:18:00.057Z,15.81
2018-06-03T05:19:00.485Z,15.91
2018-06-03T05:19:59.878Z,16.07
2018-06-03T05:20:59.797Z,16.01
2018-06-03T05:21:59.739Z,16.06
2018-06-03T05:22:59.619Z,16.10
2018-06-03T05:23:59.528Z,16.22
2018-06-03T05:24:59.440Z,16.22
2018-06-03T05:25:59.353Z,16.32
2018-06-03T05:26:59.293Z,16.50
2018-06-03T05:27:59.175Z,16.48
2018-06-03T05:28:59.091Z,16.55
2018-06-03T05:29:59.001Z,16.59
2018-06-03T05:30:58.915Z,16.62
2018-06-03T05:31:58.862Z,16.65
2018-06-03T05:32:58.755Z,16.67
2018-06-03T05:33:58.651Z,16.80
2018-06-03T05:34:58.562Z,16.82
2018-06-03T05:35:58.475Z,16.90
2018-06-03T05:36:58.418Z,16.91
2018-06-03T05:37:58.301Z,16.95
2018-06-03T05:38:58.216Z,17.02
2018-06-03T05:39:58.134Z,17.10
2018-06-03T05:40:58.038Z,17.07
2018-06-03T05:41:57.982Z,17.09
2018-06-03T05:42:57.864Z,17.00
2018-06-03T05:43:57.777Z,17.17
2018-06-03T05:44:57.688Z,17.14
2018-06-03T05:45:57.600Z,17.20
2018-06-03T05:46:57.518Z,17.36
2018-06-03T05:47:57.455Z,17.28
2018-06-03T05:48:57.339Z,17.35
2018-06-03T05:49:57.250Z,17.38
2018-06-03T05:50:57.164Z,17.43
2018-06-03T05:51:57.091Z,17.51
2018-06-03T05:52:57.022Z,17.47
2018-06-03T05:53:56.901Z,17.54
2018-06-03T05:54:56.815Z,17.49
2018-06-03T05:55:56.730Z,17.54
2018-06-03T05:56:56.644Z,17.60
2018-06-03T05:57:56.585Z,17.57
2018-06-03T05:58:56.469Z,17.70
2018-06-03T05:59:56.383Z,17.66
2018-06-03T06:00:56.296Z,17.73
2018-06-03T06:01:57.546Z,17.80
2018-06-03T06:02:56.150Z,17.80
2018-06-03T06:03:56.034Z,17.80
2018-06-03T06:04:55.945Z,17.79
2018-06-03T06:05:55.859Z,17.79
2018-06-03T06:06:55.862Z,17.86
2018-06-03T06:07:55.719Z,17.86
2018-06-03T06:08:55.603Z,17.92
2018-06-03T06:09:55.510Z,17.94
2018-06-03T06:10:55.426Z,18.10
2018-06-03T06:11:55.340Z,18.11
2018-06-03T06:12:55.282Z,18.19
2018-06-03T06:13:55.165Z,18.19
2018-06-03T06:14:55.079Z,18.26
2018-06-03T06:15:55.009Z,18.11
2018-06-03T06:16:54.913Z,18.13
2018-06-03T06:17:54.850Z,18.23
2018-06-03T06:18:54.734Z,18.31
2018-06-03T06:19:54.645Z,18.26
2018-06-03T06:20:54.558Z,18.28
2018-06-03T06:21:54.476Z,18.23
2018-06-03T06:22:54.415Z,18.32
2018-06-03T06:23:54.301Z,18.49
2018-06-03T06:24:54.216Z,18.44
2018-06-03T06:25:54.126Z,18.46
2018-06-03T06:26:54.052Z,18.42
2018-06-03T06:27:54.082Z,18.42
2018-06-03T06:28:55.510Z,18.38
2018-06-03T06:29:53.776Z,18.46
2018-06-03T06:30:53.693Z,18.44
2018-06-03T06:31:53.608Z,18.47
2018-06-03T06:32:53.549Z,18.50
2018-06-03T06:33:53.438Z,18.59
2018-06-03T06:34:53.439Z,18.69
2018-06-03T06:35:53.261Z,19.07
2018-06-03T06:36:53.174Z,19.46
2018-06-03T06:37:53.089Z,19.76
2018-06-03T06:38:53.034Z,19.58
2018-06-03T06:39:52.916Z,19.92
2018-06-03T06:40:52.834Z,20.35
2018-06-03T06:41:52.838Z,20.35
2018-06-03T06:42:52.660Z,20.51
2018-06-03T06:43:52.604Z,20.71
2018-06-03T06:44:52.489Z,20.88
2018-06-03T06:45:52.401Z,21.16
2018-06-03T06:46:52.324Z,20.88
2018-06-03T06:47:52.237Z,20.85
2018-06-03T06:48:52.261Z,21.00
2018-06-03T06:49:52.064Z,21.22
2018-06-03T06:50:51.984Z,21.15
2018-06-03T06:51:51.902Z,21.03
2018-06-03T06:52:51.817Z,21.22
2018-06-03T06:53:51.762Z,21.43
2018-06-03T06:54:51.644Z,21.64
2018-06-03T06:55:51.656Z,21.83
2018-06-03T06:56:51.479Z,22.08
2018-06-03T06:57:51.400Z,22.24
2018-06-03T06:58:51.343Z,22.46
2018-06-03T06:59:51.238Z,22.48
2018-06-03T07:00:51.146Z,22.61
2018-06-03T07:01:51.064Z,22.56
2018-06-03T07:02:51.072Z,22.79
2018-06-03T07:03:50.934Z,22.81
2018-06-03T07:04:50.820Z,22.74
2018-06-03T07:05:50.738Z,22.82
2018-06-03T07:06:50.654Z,22.91
2018-06-03T07:07:50.574Z,22.91
2018-06-03T07:08:50.527Z,22.67
2018-06-03T07:09:50.512Z,22.91
2018-06-03T07:10:50.332Z,22.86
2018-06-03T07:11:50.250Z,23.12
2018-06-03T07:12:50.174Z,23.07
2018-06-03T07:13:50.123Z,23.18
2018-06-03T07:14:50.011Z,23.00
2018-06-03T07:15:49.930Z,23.16
2018-06-03T07:16:49.954Z,23.25
2018-06-03T07:17:49.770Z,23.25
2018-06-03T07:18:49.722Z,23.52
2018-06-03T07:19:49.609Z,23.44
2018-06-03T07:20:49.527Z,23.25
2018-06-03T07:21:49.447Z,23.52
2018-06-03T07:22:49.379Z,23.47
2018-06-03T07:23:49.426Z,23.49
2018-06-03T07:24:49.208Z,23.54
2018-06-03T07:25:49.132Z,23.23
2018-06-03T07:26:49.048Z,23.25
2018-06-03T07:27:48.972Z,23.44
2018-06-03T07:28:48.922Z,23.62
2018-06-03T07:29:48.812Z,23.86
2018-06-03T07:30:48.823Z,24.00
2018-06-03T07:31:48.654Z,24.00
2018-06-03T07:32:48.576Z,23.87
2018-06-03T07:33:48.492Z,23.96
2018-06-03T07:34:49.038Z,24.19
2018-06-03T07:35:48.338Z,24.29
2018-06-03T07:36:48.254Z,24.05
2018-06-03T07:37:48.273Z,24.09
2018-06-03T07:38:48.100Z,24.41
2018-06-03T07:39:48.051Z,24.26
2018-06-03T07:40:47.941Z,24.44
2018-06-03T07:41:47.860Z,24.52
2018-06-03T07:42:47.782Z,24.70
2018-06-03T07:43:47.705Z,24.71
2018-06-03T07:44:47.748Z,24.59
2018-06-03T07:45:47.550Z,24.53
2018-06-03T07:46:47.481Z,24.53
2018-06-03T07:47:47.387Z,24.77
2018-06-03T07:48:47.310Z,24.80
2018-06-03T07:49:47.260Z,25.09
2018-06-03T07:50:47.151Z,25.26
2018-06-03T07:51:47.609Z,25.23
2018-06-03T07:52:46.997Z,25.08
2018-06-03T07:53:46.915Z,24.97
2018-06-03T07:54:46.875Z,25.05
2018-06-03T07:55:46.761Z,25.07
2018-06-03T07:56:46.679Z,25.23
2018-06-03T07:57:46.690Z,25.01
2018-06-03T07:58:46.521Z,25.08
2018-06-03T07:59:46.473Z,25.38
2018-06-03T08:00:46.365Z,25.38
2018-06-03T08:01:46.284Z,25.54
2018-06-03T08:02:46.207Z,25.31
2018-06-03T08:03:46.130Z,25.29
2018-06-03T08:04:46.082Z,25.24
2018-06-03T08:05:45.969Z,25.20
2018-06-03T08:06:45.896Z,25.30
2018-06-03T08:07:45.823Z,25.26
2018-06-03T08:08:45.738Z,25.19
2018-06-03T08:09:45.689Z,25.22
2018-06-03T08:10:45.601Z,25.24
2018-06-03T08:11:45.502Z,25.30
2018-06-03T08:12:45.423Z,25.82
2018-06-03T08:13:45.376Z,25.82
2018-06-03T08:14:45.302Z,25.72
2018-06-03T08:15:45.191Z,25.57
2018-06-03T08:16:45.113Z,25.17
2018-06-03T08:17:45.033Z,25.09
2018-06-03T08:18:45.555Z,25.01
2018-06-03T08:19:44.908Z,25.02
2018-06-03T08:20:44.800Z,25.38
2018-06-03T08:21:44.721Z,25.48
2018-06-03T08:22:44.681Z,25.31
2018-06-03T08:23:44.565Z,25.60
2018-06-03T08:24:44.524Z,25.66
2018-06-03T08:25:44.408Z,25.67
2018-06-03T08:26:44.332Z,25.86
2018-06-03T08:27:44.259Z,26.27
2018-06-03T08:28:44.175Z,26.41
2018-06-03T08:29:44.152Z,26.50
2018-06-03T08:30:44.021Z,26.71
2018-06-03T08:31:43.940Z,26.94
2018-06-03T08:32:43.863Z,26.36
2018-06-03T08:33:43.786Z,26.06
2018-06-03T08:34:43.710Z,26.12
2018-06-03T08:35:43.659Z,25.64
2018-06-03T08:36:43.551Z,25.63
2018-06-03T08:37:43.473Z,25.96
2018-06-03T08:38:43.395Z,26.16
2018-06-03T08:39:43.318Z,26.41
2018-06-03T08:40:43.275Z,26.19
2018-06-03T08:41:43.162Z,25.48
2018-06-03T08:42:43.082Z,25.08
2018-06-03T08:43:43.008Z,25.29
2018-06-03T08:44:42.948Z,25.76
2018-06-03T08:45:42.882Z,26.28
2018-06-03T08:46:42.774Z,26.16
2018-06-03T08:47:42.708Z,26.44
2018-06-03T08:48:42.624Z,26.01
2018-06-03T08:49:42.541Z,25.94
2018-06-03T08:50:42.492Z,26.16
2018-06-03T08:51:43.063Z,26.11
2018-06-03T08:52:42.403Z,26.11
2018-06-03T08:53:42.231Z,26.27
2018-06-03T08:54:42.198Z,26.24
2018-06-03T08:55:42.109Z,26.19
2018-06-03T08:56:41.998Z,26.12
2018-06-03T08:57:41.935Z,26.20
2018-06-03T08:58:41.843Z,26.35
2018-06-03T08:59:42.623Z,26.20
2018-06-03T09:00:41.719Z,26.36
2018-06-03T09:01:41.613Z,26.57
2018-06-03T09:02:41.534Z,26.39
2018-06-03T09:03:41.454Z,26.75
2018-06-03T09:04:41.376Z,26.94
2018-06-03T09:05:42.123Z,27.03
2018-06-03T09:06:41.315Z,27.12
2018-06-03T09:07:41.172Z,26.42
2018-06-03T09:08:41.167Z,25.63
2018-06-03T09:09:40.989Z,25.24
2018-06-03T09:10:40.945Z,25.02
2018-06-03T09:11:40.835Z,24.30
2018-06-03T09:12:40.756Z,24.66
2018-06-03T09:13:40.771Z,25.08
2018-06-03T09:14:40.601Z,25.45
2018-06-03T09:15:40.557Z,25.51
2018-06-03T09:16:40.447Z,25.59
2018-06-03T09:17:40.367Z,25.98
2018-06-03T09:18:40.291Z,25.86
2018-06-03T09:19:40.213Z,26.21
2018-06-03T09:20:40.163Z,26.23
2018-06-03T09:21:40.057Z,26.38
2018-06-03T09:22:39.978Z,26.17
2018-06-03T09:23:39.902Z,26.49
2018-06-03T09:24:39.827Z,25.82
2018-06-03T09:25:39.775Z,25.90
2018-06-03T09:26:39.669Z,25.79
2018-06-03T09:27:39.589Z,25.41
2018-06-03T09:28:39.513Z,25.01
2018-06-03T09:29:39.432Z,24.18
2018-06-03T09:30:39.358Z,23.97
2018-06-03T09:31:39.305Z,23.77
2018-06-03T09:32:40.080Z,23.52
2018-06-03T09:33:39.120Z,23.64
2018-06-03T09:34:39.104Z,24.11
2018-06-03T09:35:38.964Z,24.51
2018-06-03T09:36:38.911Z,24.92
2018-06-03T09:37:38.807Z,25.24
2018-06-03T09:38:38.726Z,25.79
2018-06-03T09:39:38.649Z,25.78
2018-06-03T09:40:38.571Z,26.29
2018-06-03T09:41:38.516Z,26.39
2018-06-03T09:42:38.410Z,26.46
2018-06-03T09:43:38.332Z,26.87
2018-06-03T09:44:38.266Z,26.87
2018-06-03T09:45:38.171Z,27.02
2018-06-03T09:46:38.123Z,26.97
2018-06-03T09:47:38.017Z,26.79
2018-06-03T09:48:37.940Z,26.90
2018-06-03T09:49:37.859Z,26.93
2018-06-03T09:50:38.059Z,27.12
2018-06-03T09:51:37.731Z,26.98
2018-06-03T09:52:37.624Z,26.81
2018-06-03T09:53:37.544Z,27.05
2018-06-03T09:54:37.470Z,27.08
2018-06-03T09:55:37.513Z,27.06
2018-06-03T09:56:37.343Z,27.38
2018-06-03T09:57:37.234Z,27.66
2018-06-03T09:58:37.155Z,27.62
2018-06-03T09:59:37.078Z,27.28
2018-06-03T10:00:37.000Z,27.09
2018-06-03T10:01:36.955Z,27.42
2018-06-03T10:02:36.930Z,27.45
2018-06-03T10:03:36.769Z,26.88
2018-06-03T10:04:36.690Z,27.18
2018-06-03T10:05:36.614Z,27.28
2018-06-03T10:06:36.562Z,27.35
2018-06-03T10:07:36.456Z,27.65
2018-06-03T10:08:36.385Z,27.58
2018-06-03T10:09:36.405Z,27.96
2018-06-03T10:10:36.226Z,28.03
2018-06-03T10:11:36.177Z,28.36
2018-06-03T10:12:36.068Z,28.30
2018-06-03T10:13:35.990Z,28.46
2018-06-03T10:14:35.917Z,28.45
2018-06-03T10:15:35.837Z,28.13
2018-06-03T10:16:35.883Z,28.08
2018-06-03T10:17:35.684Z,28.17
2018-06-03T10:18:35.604Z,28.39
2018-06-03T10:19:35.529Z,28.64
2018-06-03T10:20:35.451Z,28.74
2018-06-03T10:21:36.159Z,28.77
2018-06-03T10:22:35.330Z,28.62
2018-06-03T10:23:35.314Z,28.77
2018-06-03T10:24:35.141Z,28.88
2018-06-03T10:25:35.067Z,28.69
2018-06-03T10:26:34.993Z,28.55
2018-06-03T10:27:34.944Z,28.46
2018-06-03T10:28:34.838Z,28.36
2018-06-03T10:29:34.758Z,28.40
2018-06-03T10:30:34.773Z,27.93
2018-06-03T10:31:34.611Z,28.23
2018-06-03T10:32:34.560Z,28.43
2018-06-03T10:33:34.474Z,28.73
2018-06-03T10:34:34.375Z,29.08
2018-06-03T10:35:34.307Z,29.05
2018-06-03T10:36:34.227Z,29.26
2018-06-03T10:37:34.270Z,29.81
2018-06-03T10:38:34.071Z,29.89
2018-06-03T10:39:33.996Z,29.36
2018-06-03T10:40:33.920Z,28.92
2018-06-03T10:41:33.843Z,28.94
2018-06-03T10:42:33.801Z,29.02
2018-06-03T10:43:33.782Z,29.15
2018-06-03T10:44:33.618Z,28.80
2018-06-03T10:45:33.538Z,28.60
2018-06-03T10:46:34.169Z,28.89
2018-06-03T10:47:33.415Z,29.08
2018-06-03T10:48:33.311Z,29.20
2018-06-03T10:49:33.234Z,28.85
2018-06-03T10:50:33.157Z,28.82
2018-06-03T10:51:33.082Z,29.07
2018-06-03T10:52:33.035Z,28.88
2018-06-03T10:53:32.931Z,28.61
2018-06-03T10:54:32.885Z,29.00
2018-06-03T10:55:32.781Z,28.77
2018-06-03T10:56:32.704Z,29.25
2018-06-03T10:57:32.661Z,29.58
2018-06-03T10:58:32.556Z,29.25
2018-06-03T10:59:32.476Z,29.03
2018-06-03T11:00:32.402Z,29.02
2018-06-03T11:01:32.325Z,28.39
2018-06-03T11:02:32.277Z,27.81
2018-06-03T11:03:32.175Z,27.42
2018-06-03T11:04:32.098Z,27.66
2018-06-03T11:05:32.038Z,27.69
2018-06-03T11:06:31.944Z,27.65
2018-06-03T11:07:31.901Z,28.01
2018-06-03T11:08:31.797Z,27.90
2018-06-03T11:09:31.718Z,27.99
2018-06-03T11:10:31.643Z,27.99
2018-06-03T11:11:31.564Z,28.28
2018-06-03T11:12:31.521Z,28.36
2018-06-03T11:13:31.413Z,28.43
2018-06-03T11:14:31.335Z,28.36
2018-06-03T11:15:31.265Z,28.40
2018-06-03T11:16:31.187Z,28.50
2018-06-03T11:17:31.107Z,29.07
2018-06-03T11:18:31.061Z,28.98
2018-06-03T11:19:30.954Z,29.10
2018-06-03T11:20:30.880Z,29.32
2018-06-03T11:21:30.800Z,29.58
2018-06-03T11:22:30.729Z,29.62
2018-06-03T11:23:30.690Z,29.14
2018-06-03T11:24:30.573Z,28.57
2018-06-03T11:25:30.498Z,28.70
2018-06-03T11:26:30.423Z,28.79
2018-06-03T11:27:30.395Z,28.76
2018-06-03T11:28:30.301Z,28.74
2018-06-03T11:29:30.195Z,28.95
2018-06-03T11:30:30.121Z,29.02
2018-06-03T11:31:30.044Z,29.35
2018-06-03T11:32:29.967Z,29.18
2018-06-03T11:33:29.923Z,29.54
2018-06-03T11:34:29.816Z,29.33
2018-06-03T11:35:29.741Z,29.49
2018-06-03T11:36:29.663Z,29.02
2018-06-03T11:37:29.588Z,29.25
2018-06-03T11:38:29.542Z,29.20
2018-06-03T11:39:29.440Z,29.25
2018-06-03T11:40:29.362Z,29.03
2018-06-03T11:41:29.288Z,29.05
2018-06-03T11:42:29.212Z,29.08
2018-06-03T11:43:29.165Z,29.30
2018-06-03T11:44:29.064Z,29.18
2018-06-03T11:45:30.635Z,27.93
2018-06-03T11:46:28.909Z,27.38
2018-06-03T11:47:28.833Z,26.98
2018-06-03T11:48:28.789Z,27.15
2018-06-03T11:49:29.636Z,27.59
2018-06-03T11:50:28.605Z,27.99
2018-06-03T11:51:28.577Z,27.78
2018-06-03T11:52:28.455Z,28.18
2018-06-03T11:53:28.409Z,28.50
2018-06-03T11:54:28.302Z,28.35
2018-06-03T11:55:28.227Z,28.36
2018-06-03T11:56:28.147Z,28.73
2018-06-03T11:57:28.072Z,28.82
2018-06-03T11:58:28.026Z,28.85
2018-06-03T11:59:28.028Z,28.72
2018-06-03T12:00:27.846Z,28.58
2018-06-03T12:01:27.766Z,28.62
2018-06-03T12:02:27.692Z,29.03
2018-06-03T12:03:27.662Z,29.33
2018-06-03T12:04:27.542Z,29.55
2018-06-03T12:05:27.464Z,29.88
2018-06-03T12:06:27.482Z,30.16
2018-06-03T12:07:27.315Z,30.23
2018-06-03T12:08:27.238Z,29.67
2018-06-03T12:09:27.190Z,29.60
2018-06-03T12:10:27.697Z,29.74
2018-06-03T12:11:27.008Z,29.89
2018-06-03T12:12:27.040Z,29.57
2018-06-03T12:13:26.856Z,29.76
2018-06-03T12:14:26.811Z,29.79
2018-06-03T12:15:26.720Z,29.44
2018-06-03T12:16:26.635Z,29.33
2018-06-03T12:17:26.555Z,29.42
2018-06-03T12:18:26.486Z,29.67
2018-06-03T12:19:26.434Z,29.69
2018-06-03T12:20:26.332Z,29.94
2018-06-03T12:21:26.255Z,29.66
2018-06-03T12:22:26.177Z,29.73
2018-06-03T12:23:26.104Z,29.05
2018-06-03T12:24:26.074Z,29.17
2018-06-03T12:25:25.962Z,28.95
2018-06-03T12:26:25.878Z,29.07
2018-06-03T12:27:25.803Z,29.02
2018-06-03T12:28:25.747Z,29.08
2018-06-03T12:29:25.680Z,29.48
2018-06-03T12:30:25.580Z,29.81
2018-06-03T12:31:25.502Z,29.81
2018-06-03T12:32:25.424Z,29.36
2018-06-03T12:33:25.441Z,29.14
2018-06-03T12:34:25.305Z,28.89
2018-06-03T12:35:25.209Z,29.07
2018-06-03T12:36:25.127Z,28.65
2018-06-03T12:37:25.053Z,28.58
2018-06-03T12:38:25.018Z,28.55
2018-06-03T12:39:24.930Z,28.25
2018-06-03T12:40:24.912Z,28.18
2018-06-03T12:41:25.711Z,28.35
2018-06-03T12:42:24.721Z,28.42
2018-06-03T12:43:24.599Z,28.32
2018-06-03T12:44:24.555Z,28.27
2018-06-03T12:45:24.447Z,28.39
2018-06-03T12:46:24.463Z,28.25
2018-06-03T12:47:25.160Z,28.09
2018-06-03T12:48:24.223Z,28.08
2018-06-03T12:49:24.150Z,28.09
2018-06-03T12:50:24.101Z,28.05
2018-06-03T12:51:23.995Z,28.09